West Lebanon, Pennsylvania
Current Conditions -  °F | °C
As of 8:55 AM on Saturday 25 Oct 2014 (Local Time) from KIDI Reporting Station
Broken Clouds Broken Clouds  
Wind Chill: 45°   Ceiling: 4000
Heat Index: 48°   Visibility: 10mi
Dew Point: 41°   Wind: 8mph
Humidity: 76%   Direction: 240°WSW
Pressure: 29.99"   Gusts: NA
Location:  40.6°N, 79.35°W
Report Text: KIDI 251255Z AUTO 24007KT 10SM BKN040 09/05 A2999 RMK A01
Loading
Personal Weather Stations






























Interactive Weather Map
Tropical Storm Tracking
New forecast layout! Learn more

10-Day Weather Forecast

Advertisements
Track Severe Weather on mobile